createdAt,value
2023-03-12T00:00:00.124Z,995.23
2023-03-12T00:05:00.128Z,995.27
2023-03-12T00:10:00.136Z,995.26
2023-03-12T00:15:00.128Z,995.14
2023-03-12T00:20:00.100Z,995.14
2023-03-12T00:25:00.166Z,995.18
2023-03-12T00:30:00.127Z,995.23
2023-03-12T00:35:00.138Z,995.29
2023-03-12T00:40:00.101Z,995.27
2023-03-12T00:45:00.140Z,995.28
2023-03-12T00:50:00.114Z,995.28
2023-03-12T00:55:00.109Z,995.25
2023-03-12T01:00:00.188Z,995.32
2023-03-12T01:05:00.193Z,995.33
2023-03-12T01:10:00.158Z,995.31
2023-03-12T01:15:00.110Z,995.34
2023-03-12T01:20:00.110Z,995.32
2023-03-12T01:25:00.140Z,995.32
2023-03-12T01:30:00.119Z,995.35
2023-03-12T01:35:00.103Z,995.32
2023-03-12T01:40:00.152Z,995.31
2023-03-12T01:45:00.100Z,995.21
2023-03-12T01:50:00.127Z,995.21
2023-03-12T01:55:00.110Z,995.22
2023-03-12T02:00:00.132Z,995.21
2023-03-12T02:05:00.133Z,995.31
2023-03-12T02:10:00.115Z,995.34
2023-03-12T02:15:00.092Z,995.24
2023-03-12T02:20:00.109Z,995.29
2023-03-12T02:25:00.113Z,995.35
2023-03-12T02:30:00.119Z,995.27
2023-03-12T02:35:00.120Z,995.27
2023-03-12T02:40:00.126Z,995.32
2023-03-12T02:45:00.153Z,995.41
2023-03-12T02:50:00.147Z,995.4
2023-03-12T02:55:00.130Z,995.44
2023-03-12T03:00:00.101Z,995.48
2023-03-12T03:05:00.127Z,995.46
2023-03-12T03:10:00.094Z,995.43
2023-03-12T03:15:00.114Z,995.52
2023-03-12T03:20:00.109Z,995.63
2023-03-12T03:25:00.135Z,995.63
2023-03-12T03:30:00.169Z,995.66
2023-03-12T03:35:00.108Z,995.71
2023-03-12T03:40:00.140Z,995.75
2023-03-12T03:45:00.134Z,995.8
2023-03-12T03:50:00.115Z,995.77
2023-03-12T03:55:00.114Z,995.65
2023-03-12T04:00:03.161Z,995.77
2023-03-12T04:05:00.129Z,995.74
2023-03-12T04:10:00.106Z,995.79
2023-03-12T04:15:00.089Z,995.81
2023-03-12T04:20:00.108Z,995.74
2023-03-12T04:25:00.116Z,995.81
2023-03-12T04:30:00.145Z,995.22
2023-03-12T04:35:00.098Z,995.33
2023-03-12T04:40:00.154Z,995.35
2023-03-12T04:45:00.140Z,995.31
2023-03-12T04:50:00.123Z,995.28
2023-03-12T04:55:00.130Z,995.18
2023-03-12T05:00:00.140Z,995.23
2023-03-12T05:05:00.138Z,995.27
2023-03-12T05:10:00.114Z,995.2
2023-03-12T05:15:00.114Z,995.27
2023-03-12T05:20:00.104Z,995.2
2023-03-12T05:25:00.136Z,995.32
2023-03-12T05:30:00.126Z,995.2
2023-03-12T05:35:00.128Z,995.28
2023-03-12T05:40:00.116Z,995.24
2023-03-12T05:45:00.141Z,995.22
2023-03-12T05:50:00.135Z,995.33
2023-03-12T05:55:00.112Z,995.25
2023-03-12T06:00:00.110Z,995.21
2023-03-12T06:05:00.143Z,995.26
2023-03-12T06:10:00.108Z,995.32
2023-03-12T06:15:00.094Z,995.23
2023-03-12T06:20:00.120Z,995.22
2023-03-12T06:25:00.141Z,995.28
2023-03-12T06:30:00.150Z,995.26
2023-03-12T06:35:00.118Z,995.26
2023-03-12T06:40:00.120Z,995.34
2023-03-12T06:45:00.134Z,995.34
2023-03-12T06:50:00.097Z,995.28
2023-03-12T06:55:00.118Z,995.39
2023-03-12T07:00:00.169Z,995.35
2023-03-12T07:05:00.225Z,995.31
2023-03-12T07:10:00.113Z,995.43
2023-03-12T07:15:00.098Z,995.38
2023-03-12T07:20:00.129Z,995.47
2023-03-12T07:25:00.134Z,995.36
2023-03-12T07:30:00.120Z,995.32
2023-03-12T07:35:00.118Z,995.23
2023-03-12T07:40:00.224Z,995.32
2023-03-12T07:45:00.223Z,995.37
2023-03-12T07:50:00.168Z,995.3
2023-03-12T07:55:00.199Z,995.32
2023-03-12T08:00:00.201Z,995.22
2023-03-12T08:05:00.200Z,995.35
2023-03-12T08:10:00.306Z,995.26
2023-03-12T08:15:00.117Z,995.2
2023-03-12T08:20:00.099Z,995.26
2023-03-12T08:25:00.126Z,995.26
2023-03-12T08:30:00.120Z,995.23
2023-03-12T08:35:00.100Z,995.23
2023-03-12T08:40:00.149Z,995.17
2023-03-12T08:45:00.115Z,995.14
2023-03-12T08:50:00.149Z,995.03
2023-03-12T08:55:00.110Z,995.04
2023-03-12T09:00:00.143Z,995.11
2023-03-12T09:05:00.121Z,995
2023-03-12T09:10:00.105Z,994.98
2023-03-12T09:15:04.691Z,994.97
2023-03-12T09:20:00.187Z,994.91
2023-03-12T09:25:00.117Z,994.88
2023-03-12T09:30:01.227Z,994.94
2023-03-12T09:35:00.100Z,994.79
2023-03-12T09:40:00.126Z,994.86
2023-03-12T09:45:00.141Z,994.83
2023-03-12T09:50:00.103Z,994.83
2023-03-12T09:55:00.123Z,994.69
2023-03-12T10:00:00.105Z,994.67
2023-03-12T10:05:00.501Z,994.65
2023-03-12T10:10:00.137Z,994.48
2023-03-12T10:15:00.109Z,994.38
2023-03-12T10:20:00.106Z,994.39
2023-03-12T10:25:00.126Z,994.31
2023-03-12T10:30:00.113Z,994.21
2023-03-12T10:35:00.103Z,994.29
2023-03-12T10:40:00.122Z,994.48
2023-03-12T10:45:00.131Z,994.33
2023-03-12T10:50:00.133Z,994.26
2023-03-12T10:55:00.115Z,994.22
2023-03-12T11:00:00.131Z,994.23
2023-03-12T11:05:00.133Z,994.12
2023-03-12T11:10:00.126Z,994.08
2023-03-12T11:15:00.109Z,993.87
2023-03-12T11:20:00.135Z,993.82
2023-03-12T11:25:00.164Z,993.8
2023-03-12T11:30:00.145Z,993.69
2023-03-12T11:35:00.123Z,993.68
2023-03-12T11:40:00.133Z,993.55
2023-03-12T11:45:00.165Z,993.44
2023-03-12T11:50:00.115Z,993.37
2023-03-12T11:55:00.126Z,993.24
2023-03-12T12:00:00.371Z,993.12
2023-03-12T12:05:00.123Z,993.05
2023-03-12T12:10:00.148Z,993.05
2023-03-12T12:15:00.123Z,992.91
2023-03-12T12:20:00.113Z,992.84
2023-03-12T12:25:00.170Z,992.72
2023-03-12T12:30:00.116Z,992.64
2023-03-12T12:35:00.128Z,992.53
2023-03-12T12:40:00.126Z,992.59
2023-03-12T12:45:00.112Z,992.57
2023-03-12T12:50:00.129Z,992.54
2023-03-12T12:55:00.112Z,992.45
2023-03-12T13:00:00.113Z,992.39
2023-03-12T13:05:00.139Z,992.43
2023-03-12T13:10:00.133Z,992.37
2023-03-12T13:15:00.084Z,992.29
2023-03-12T13:20:01.568Z,992.37
2023-03-12T13:25:00.145Z,992.31
2023-03-12T13:30:00.130Z,992.16
2023-03-12T13:35:00.242Z,992.14
2023-03-12T13:40:00.143Z,992.33
2023-03-12T13:45:00.138Z,992.21
2023-03-12T13:50:00.137Z,992.1
2023-03-12T13:55:00.101Z,992.16
2023-03-12T14:00:00.147Z,992
2023-03-12T14:05:00.296Z,991.97
2023-03-12T14:10:00.146Z,991.97
2023-03-12T14:15:00.112Z,991.86
2023-03-12T14:20:00.143Z,991.82
2023-03-12T14:25:00.102Z,991.81
2023-03-12T14:30:00.111Z,991.85
2023-03-12T14:35:00.162Z,991.74
2023-03-12T14:40:00.137Z,991.6
2023-03-12T14:45:00.188Z,991.62
2023-03-12T14:50:00.167Z,991.5
2023-03-12T14:55:00.156Z,991.35
2023-03-12T15:00:00.156Z,991.32
2023-03-12T15:05:00.276Z,991.24
2023-03-12T15:10:00.144Z,991.23
2023-03-12T15:15:00.130Z,991.21
2023-03-12T15:20:00.125Z,991.11
2023-03-12T15:25:00.129Z,991.03
2023-03-12T15:30:00.140Z,990.82
2023-03-12T15:35:00.130Z,990.76
2023-03-12T15:40:00.267Z,990.79
2023-03-12T15:45:00.119Z,990.83
2023-03-12T15:50:00.153Z,990.84
2023-03-12T15:55:00.105Z,990.79
2023-03-12T16:00:00.122Z,990.78
2023-03-12T16:05:00.155Z,990.63
2023-03-12T16:10:00.155Z,990.71
2023-03-12T16:15:00.146Z,990.7
2023-03-12T16:20:00.103Z,990.74
2023-03-12T16:25:00.133Z,990.76
2023-03-12T16:30:00.157Z,990.83
2023-03-12T16:35:00.163Z,990.84
2023-03-12T16:40:00.179Z,990.89
2023-03-12T16:45:00.145Z,990.74
2023-03-12T16:50:00.147Z,990.66
2023-03-12T16:55:00.099Z,990.54
2023-03-12T17:00:00.141Z,990.75
2023-03-12T17:05:00.137Z,990.86
2023-03-12T17:10:00.087Z,990.96
2023-03-12T17:15:00.111Z,990.83
2023-03-12T17:20:00.460Z,990.84
2023-03-12T17:25:00.117Z,991.14
2023-03-12T17:30:00.124Z,991.11
2023-03-12T17:35:00.121Z,990.9
2023-03-12T17:40:00.116Z,990.94
2023-03-12T17:45:00.216Z,990.9
2023-03-12T17:50:00.156Z,990.92
2023-03-12T17:55:00.103Z,990.87
2023-03-12T18:00:00.141Z,990.87
2023-03-12T18:05:00.246Z,991.13
2023-03-12T18:10:00.130Z,991.16
2023-03-12T18:15:00.121Z,991.26
2023-03-12T18:20:00.174Z,991.18
2023-03-12T18:25:00.153Z,991.19
2023-03-12T18:30:00.130Z,991.02
2023-03-12T18:35:00.113Z,991.17
2023-03-12T18:40:00.180Z,991.21
2023-03-12T18:45:00.114Z,991.2
2023-03-12T18:50:00.103Z,991.16
2023-03-12T18:55:00.122Z,991.22
2023-03-12T19:00:00.114Z,991.33
2023-03-12T19:05:00.142Z,991.43
2023-03-12T19:10:00.139Z,991.4
2023-03-12T19:15:00.113Z,991.27
2023-03-12T19:20:00.098Z,991.32
2023-03-12T19:25:00.163Z,991.4
2023-03-12T19:30:00.144Z,991.26
2023-03-12T19:35:00.135Z,991.37
2023-03-12T19:40:00.152Z,991.34
2023-03-12T19:45:00.161Z,991.39
2023-03-12T19:50:00.110Z,991.5
2023-03-12T19:55:05.319Z,991.61
2023-03-12T20:00:00.176Z,991.46
2023-03-12T20:05:00.136Z,991.43
2023-03-12T20:10:00.104Z,991.39
2023-03-12T20:15:00.140Z,991.39
2023-03-12T20:20:00.130Z,991.28
2023-03-12T20:25:00.183Z,991.3
2023-03-12T20:30:00.128Z,991.42
2023-03-12T20:35:00.113Z,991.36
2023-03-12T20:40:00.127Z,991.36
2023-03-12T20:45:00.142Z,991.33
2023-03-12T20:50:00.138Z,991.41
2023-03-12T20:55:00.110Z,991.41
2023-03-12T21:00:00.138Z,991.35
2023-03-12T21:05:00.129Z,991.44
2023-03-12T21:10:00.130Z,991.33
2023-03-12T21:15:00.118Z,991.22
2023-03-12T21:20:00.111Z,991.17
2023-03-12T21:25:00.123Z,991.06
2023-03-12T21:30:00.159Z,991.67
2023-03-12T21:35:00.113Z,991.51
2023-03-12T21:40:00.130Z,991.52
2023-03-12T21:45:00.151Z,991.5
2023-03-12T21:50:00.143Z,991.47
2023-03-12T21:55:00.148Z,991.48
2023-03-12T22:00:00.154Z,991.39
2023-03-12T22:05:00.170Z,991.42
2023-03-12T22:10:00.118Z,991.6
2023-03-12T22:15:00.131Z,991.67
2023-03-12T22:20:00.101Z,991.78
2023-03-12T22:25:00.194Z,991.68
2023-03-12T22:30:00.154Z,991.6
2023-03-12T22:35:00.112Z,991.64
2023-03-12T22:40:00.153Z,991.68
2023-03-12T22:45:00.110Z,991.58
2023-03-12T22:50:00.111Z,991.5
2023-03-12T22:55:00.124Z,991.42
2023-03-12T23:00:00.149Z,991.4
2023-03-12T23:05:00.216Z,991.37
2023-03-12T23:10:00.127Z,991.43
2023-03-12T23:15:00.128Z,991.33
2023-03-12T23:20:00.189Z,991.29
2023-03-12T23:25:00.153Z,991.21
2023-03-12T23:30:00.137Z,991.23
2023-03-12T23:35:00.107Z,991.18
2023-03-12T23:40:00.147Z,991.2
2023-03-12T23:45:00.181Z,991.23
2023-03-12T23:50:00.176Z,991.2
2023-03-12T23:55:00.128Z,991.07
